sensor_id;sensor_type;location;lat;lon;timestamp;P1;durP1;ratioP1;P2;durP2;ratioP2
20008;SDS011;10165;42.662;23.260;2023-08-06T00:00:55;4.97;;;2.80;;
20008;SDS011;10165;42.662;23.260;2023-08-06T00:03:22;6.50;;;3.23;;
20008;SDS011;10165;42.662;23.260;2023-08-06T00:05:49;4.17;;;2.63;;
20008;SDS011;10165;42.662;23.260;2023-08-06T00:08:15;5.50;;;2.77;;
20008;SDS011;10165;42.662;23.260;2023-08-06T00:10:42;5.23;;;3.10;;
20008;SDS011;10165;42.662;23.260;2023-08-06T00:13:09;6.97;;;3.10;;
20008;SDS011;10165;42.662;23.260;2023-08-06T00:15:36;6.17;;;2.80;;
20008;SDS011;10165;42.662;23.260;2023-08-06T00:18:03;6.27;;;3.17;;
20008;SDS011;10165;42.662;23.260;2023-08-06T00:20:30;4.73;;;2.70;;
20008;SDS011;10165;42.662;23.260;2023-08-06T00:22:56;5.20;;;2.87;;
20008;SDS011;10165;42.662;23.260;2023-08-06T00:25:23;4.47;;;2.80;;
20008;SDS011;10165;42.662;23.260;2023-08-06T00:27:50;3.40;;;2.70;;
20008;SDS011;10165;42.662;23.260;2023-08-06T00:30:17;6.57;;;2.70;;
20008;SDS011;10165;42.662;23.260;2023-08-06T00:32:44;5.97;;;2.90;;
20008;SDS011;10165;42.662;23.260;2023-08-06T00:35:11;5.00;;;2.60;;
20008;SDS011;10165;42.662;23.260;2023-08-06T00:37:39;2.93;;;2.37;;
20008;SDS011;10165;42.662;23.260;2023-08-06T00:40:06;2.97;;;2.20;;
20008;SDS011;10165;42.662;23.260;2023-08-06T00:42:34;5.60;;;3.30;;
20008;SDS011;10165;42.662;23.260;2023-08-06T00:45:01;2.77;;;2.10;;
20008;SDS011;10165;42.662;23.260;2023-08-06T00:47:29;3.77;;;2.63;;
20008;SDS011;10165;42.662;23.260;2023-08-06T00:49:56;4.03;;;2.70;;
20008;SDS011;10165;42.662;23.260;2023-08-06T00:52:23;2.60;;;2.17;;
20008;SDS011;10165;42.662;23.260;2023-08-06T00:54:50;2.57;;;2.37;;
20008;SDS011;10165;42.662;23.260;2023-08-06T00:57:17;3.90;;;2.43;;
20008;SDS011;10165;42.662;23.260;2023-08-06T00:59:43;3.40;;;2.20;;
20008;SDS011;10165;42.662;23.260;2023-08-06T01:02:11;2.97;;;2.20;;
20008;SDS011;10165;42.662;23.260;2023-08-06T01:04:39;3.03;;;2.50;;
20008;SDS011;10165;42.662;23.260;2023-08-06T01:17:55;3.43;;;1.97;;
20008;SDS011;10165;42.662;23.260;2023-08-06T01:20:27;3.20;;;2.40;;
20008;SDS011;10165;42.662;23.260;2023-08-06T01:22:55;3.60;;;2.67;;
20008;SDS011;10165;42.662;23.260;2023-08-06T01:25:21;2.80;;;2.43;;
20008;SDS011;10165;42.662;23.260;2023-08-06T01:28:06;3.03;;;2.40;;
20008;SDS011;10165;42.662;23.260;2023-08-06T01:30:44;3.73;;;2.80;;
20008;SDS011;10165;42.662;23.260;2023-08-06T01:33:14;5.13;;;2.60;;
20008;SDS011;10165;42.662;23.260;2023-08-06T01:35:45;3.90;;;2.97;;
20008;SDS011;10165;42.662;23.260;2023-08-06T01:38:13;5.40;;;2.80;;
20008;SDS011;10165;42.662;23.260;2023-08-06T01:40:40;6.90;;;3.23;;
20008;SDS011;10165;42.662;23.260;2023-08-06T01:43:07;2.93;;;2.63;;
20008;SDS011;10165;42.662;23.260;2023-08-06T01:45:34;6.07;;;3.40;;
20008;SDS011;10165;42.662;23.260;2023-08-06T01:48:01;4.40;;;2.87;;
20008;SDS011;10165;42.662;23.260;2023-08-06T01:50:28;4.03;;;2.70;;
20008;SDS011;10165;42.662;23.260;2023-08-06T01:52:55;3.90;;;2.40;;
20008;SDS011;10165;42.662;23.260;2023-08-06T01:55:22;4.37;;;2.70;;
20008;SDS011;10165;42.662;23.260;2023-08-06T01:57:48;4.97;;;2.73;;
20008;SDS011;10165;42.662;23.260;2023-08-06T02:00:15;4.03;;;2.80;;
20008;SDS011;10165;42.662;23.260;2023-08-06T02:02:42;3.80;;;2.63;;
20008;SDS011;10165;42.662;23.260;2023-08-06T02:05:08;3.80;;;2.80;;
20008;SDS011;10165;42.662;23.260;2023-08-06T02:07:35;4.90;;;2.80;;
20008;SDS011;10165;42.662;23.260;2023-08-06T02:10:02;3.80;;;2.77;;
20008;SDS011;10165;42.662;23.260;2023-08-06T02:12:29;3.93;;;2.50;;
20008;SDS011;10165;42.662;23.260;2023-08-06T02:14:56;3.70;;;2.23;;
20008;SDS011;10165;42.662;23.260;2023-08-06T02:17:22;3.33;;;2.40;;
20008;SDS011;10165;42.662;23.260;2023-08-06T02:19:49;8.73;;;3.27;;
20008;SDS011;10165;42.662;23.260;2023-08-06T02:22:16;11.83;;;4.23;;
20008;SDS011;10165;42.662;23.260;2023-08-06T02:24:42;7.20;;;3.77;;
20008;SDS011;10165;42.662;23.260;2023-08-06T02:27:09;6.77;;;2.70;;
20008;SDS011;10165;42.662;23.260;2023-08-06T02:29:39;6.23;;;2.90;;
20008;SDS011;10165;42.662;23.260;2023-08-06T02:32:07;3.90;;;2.70;;
20008;SDS011;10165;42.662;23.260;2023-08-06T02:34:34;4.40;;;3.00;;
20008;SDS011;10165;42.662;23.260;2023-08-06T02:37:00;6.00;;;3.53;;
20008;SDS011;10165;42.662;23.260;2023-08-06T02:39:27;5.17;;;3.00;;
20008;SDS011;10165;42.662;23.260;2023-08-06T02:41:54;5.23;;;2.70;;
20008;SDS011;10165;42.662;23.260;2023-08-06T02:44:21;3.50;;;2.70;;
20008;SDS011;10165;42.662;23.260;2023-08-06T02:46:48;5.90;;;2.90;;
20008;SDS011;10165;42.662;23.260;2023-08-06T02:49:15;3.33;;;2.40;;
20008;SDS011;10165;42.662;23.260;2023-08-06T02:51:41;8.57;;;2.77;;
20008;SDS011;10165;42.662;23.260;2023-08-06T02:54:08;4.73;;;2.90;;
20008;SDS011;10165;42.662;23.260;2023-08-06T02:56:35;4.13;;;2.70;;
20008;SDS011;10165;42.662;23.260;2023-08-06T02:59:01;4.00;;;2.70;;
20008;SDS011;10165;42.662;23.260;2023-08-06T03:01:28;3.50;;;2.47;;
20008;SDS011;10165;42.662;23.260;2023-08-06T03:03:55;4.07;;;2.70;;
20008;SDS011;10165;42.662;23.260;2023-08-06T03:06:22;3.30;;;2.20;;
20008;SDS011;10165;42.662;23.260;2023-08-06T03:08:48;12.93;;;3.03;;
20008;SDS011;10165;42.662;23.260;2023-08-06T03:11:16;3.50;;;2.50;;
20008;SDS011;10165;42.662;23.260;2023-08-06T03:13:42;2.53;;;2.33;;
20008;SDS011;10165;42.662;23.260;2023-08-06T03:16:09;3.33;;;2.40;;
20008;SDS011;10165;42.662;23.260;2023-08-06T03:18:36;5.07;;;2.77;;
20008;SDS011;10165;42.662;23.260;2023-08-06T03:21:02;6.20;;;2.60;;
20008;SDS011;10165;42.662;23.260;2023-08-06T03:23:29;5.83;;;2.50;;
20008;SDS011;10165;42.662;23.260;2023-08-06T03:25:56;3.27;;;2.40;;
20008;SDS011;10165;42.662;23.260;2023-08-06T03:28:23;3.13;;;2.63;;
20008;SDS011;10165;42.662;23.260;2023-08-06T03:30:58;2.93;;;2.57;;
20008;SDS011;10165;42.662;23.260;2023-08-06T03:33:28;3.50;;;2.50;;
20008;SDS011;10165;42.662;23.260;2023-08-06T03:35:55;3.00;;;2.23;;
20008;SDS011;10165;42.662;23.260;2023-08-06T03:38:22;3.20;;;2.27;;
20008;SDS011;10165;42.662;23.260;2023-08-06T03:40:49;3.77;;;2.40;;
20008;SDS011;10165;42.662;23.260;2023-08-06T03:43:16;4.70;;;2.30;;
20008;SDS011;10165;42.662;23.260;2023-08-06T03:45:43;2.43;;;2.23;;
20008;SDS011;10165;42.662;23.260;2023-08-06T03:48:09;2.87;;;2.17;;
20008;SDS011;10165;42.662;23.260;2023-08-06T03:50:36;5.27;;;2.63;;
20008;SDS011;10165;42.662;23.260;2023-08-06T03:53:04;3.57;;;2.30;;
20008;SDS011;10165;42.662;23.260;2023-08-06T03:55:31;4.33;;;2.60;;
20008;SDS011;10165;42.662;23.260;2023-08-06T03:57:57;6.00;;;2.77;;
20008;SDS011;10165;42.662;23.260;2023-08-06T04:00:24;4.40;;;2.80;;
20008;SDS011;10165;42.662;23.260;2023-08-06T04:02:51;4.17;;;2.80;;
20008;SDS011;10165;42.662;23.260;2023-08-06T04:05:17;5.17;;;3.03;;
20008;SDS011;10165;42.662;23.260;2023-08-06T04:07:44;3.90;;;3.00;;
20008;SDS011;10165;42.662;23.260;2023-08-06T04:10:11;5.30;;;2.73;;
20008;SDS011;10165;42.662;23.260;2023-08-06T04:12:38;3.20;;;2.67;;
20008;SDS011;10165;42.662;23.260;2023-08-06T04:15:05;4.30;;;2.80;;
20008;SDS011;10165;42.662;23.260;2023-08-06T04:17:33;6.77;;;3.03;;
20008;SDS011;10165;42.662;23.260;2023-08-06T04:19:59;3.83;;;3.10;;
20008;SDS011;10165;42.662;23.260;2023-08-06T04:22:27;4.13;;;3.30;;
20008;SDS011;10165;42.662;23.260;2023-08-06T04:24:54;6.70;;;3.10;;
20008;SDS011;10165;42.662;23.260;2023-08-06T04:27:20;5.10;;;3.33;;
20008;SDS011;10165;42.662;23.260;2023-08-06T04:29:47;4.77;;;3.13;;
20008;SDS011;10165;42.662;23.260;2023-08-06T04:32:14;4.27;;;3.27;;
20008;SDS011;10165;42.662;23.260;2023-08-06T04:34:41;6.63;;;3.47;;
20008;SDS011;10165;42.662;23.260;2023-08-06T04:37:07;4.33;;;3.33;;
20008;SDS011;10165;42.662;23.260;2023-08-06T04:39:34;6.47;;;3.10;;
20008;SDS011;10165;42.662;23.260;2023-08-06T04:42:01;6.67;;;3.40;;
20008;SDS011;10165;42.662;23.260;2023-08-06T04:44:29;3.23;;;2.93;;
20008;SDS011;10165;42.662;23.260;2023-08-06T04:46:56;4.60;;;3.30;;
20008;SDS011;10165;42.662;23.260;2023-08-06T04:49:22;6.73;;;3.53;;
20008;SDS011;10165;42.662;23.260;2023-08-06T04:51:49;6.33;;;4.03;;
20008;SDS011;10165;42.662;23.260;2023-08-06T04:54:16;5.37;;;3.80;;
20008;SDS011;10165;42.662;23.260;2023-08-06T04:56:43;5.73;;;4.63;;
20008;SDS011;10165;42.662;23.260;2023-08-06T04:59:10;5.47;;;4.57;;
20008;SDS011;10165;42.662;23.260;2023-08-06T05:01:36;8.07;;;5.67;;
20008;SDS011;10165;42.662;23.260;2023-08-06T05:04:03;7.10;;;4.80;;
20008;SDS011;10165;42.662;23.260;2023-08-06T05:06:30;9.60;;;5.60;;
20008;SDS011;10165;42.662;23.260;2023-08-06T05:08:57;5.23;;;4.53;;
20008;SDS011;10165;42.662;23.260;2023-08-06T05:11:24;5.63;;;4.70;;
20008;SDS011;10165;42.662;23.260;2023-08-06T05:13:51;5.77;;;5.20;;
20008;SDS011;10165;42.662;23.260;2023-08-06T05:16:17;7.47;;;5.77;;
20008;SDS011;10165;42.662;23.260;2023-08-06T05:18:44;10.10;;;6.03;;
20008;SDS011;10165;42.662;23.260;2023-08-06T05:21:11;6.47;;;5.60;;
20008;SDS011;10165;42.662;23.260;2023-08-06T05:23:38;7.40;;;5.23;;
20008;SDS011;10165;42.662;23.260;2023-08-06T05:26:04;5.57;;;4.70;;
20008;SDS011;10165;42.662;23.260;2023-08-06T05:28:31;5.67;;;5.07;;
20008;SDS011;10165;42.662;23.260;2023-08-06T05:30:58;5.77;;;5.17;;
20008;SDS011;10165;42.662;23.260;2023-08-06T05:33:25;5.43;;;4.67;;
20008;SDS011;10165;42.662;23.260;2023-08-06T05:35:51;5.30;;;4.80;;
20008;SDS011;10165;42.662;23.260;2023-08-06T05:38:18;4.53;;;4.13;;
20008;SDS011;10165;42.662;23.260;2023-08-06T05:40:45;6.70;;;4.60;;
20008;SDS011;10165;42.662;23.260;2023-08-06T05:43:11;8.03;;;5.23;;
20008;SDS011;10165;42.662;23.260;2023-08-06T05:45:38;5.20;;;4.37;;
20008;SDS011;10165;42.662;23.260;2023-08-06T05:48:05;5.60;;;4.67;;
20008;SDS011;10165;42.662;23.260;2023-08-06T05:50:32;7.03;;;5.10;;
20008;SDS011;10165;42.662;23.260;2023-08-06T05:52:58;8.77;;;5.53;;
20008;SDS011;10165;42.662;23.260;2023-08-06T05:55:27;6.20;;;5.57;;
20008;SDS011;10165;42.662;23.260;2023-08-06T05:57:54;8.37;;;6.17;;
20008;SDS011;10165;42.662;23.260;2023-08-06T06:00:21;9.67;;;6.30;;
20008;SDS011;10165;42.662;23.260;2023-08-06T06:02:48;7.80;;;5.83;;
20008;SDS011;10165;42.662;23.260;2023-08-06T06:05:15;8.70;;;7.20;;
20008;SDS011;10165;42.662;23.260;2023-08-06T06:07:42;9.53;;;7.03;;
20008;SDS011;10165;42.662;23.260;2023-08-06T06:10:09;11.57;;;7.30;;
20008;SDS011;10165;42.662;23.260;2023-08-06T06:12:37;11.67;;;7.37;;
20008;SDS011;10165;42.662;23.260;2023-08-06T06:15:05;10.20;;;8.20;;
20008;SDS011;10165;42.662;23.260;2023-08-06T06:17:32;10.30;;;7.13;;
20008;SDS011;10165;42.662;23.260;2023-08-06T06:19:59;9.73;;;7.77;;
20008;SDS011;10165;42.662;23.260;2023-08-06T06:22:25;9.60;;;7.83;;
20008;SDS011;10165;42.662;23.260;2023-08-06T06:24:52;9.70;;;6.97;;
20008;SDS011;10165;42.662;23.260;2023-08-06T06:27:19;9.20;;;7.10;;
20008;SDS011;10165;42.662;23.260;2023-08-06T06:29:45;8.77;;;6.77;;
20008;SDS011;10165;42.662;23.260;2023-08-06T06:32:12;8.67;;;5.87;;
20008;SDS011;10165;42.662;23.260;2023-08-06T06:34:39;9.13;;;7.20;;
20008;SDS011;10165;42.662;23.260;2023-08-06T06:37:06;12.60;;;7.63;;
20008;SDS011;10165;42.662;23.260;2023-08-06T06:39:32;11.87;;;7.97;;
20008;SDS011;10165;42.662;23.260;2023-08-06T06:41:59;9.73;;;7.53;;
20008;SDS011;10165;42.662;23.260;2023-08-06T06:44:26;8.63;;;7.10;;
20008;SDS011;10165;42.662;23.260;2023-08-06T06:46:52;8.63;;;6.40;;
20008;SDS011;10165;42.662;23.260;2023-08-06T06:49:19;7.93;;;6.83;;
20008;SDS011;10165;42.662;23.260;2023-08-06T06:51:46;11.00;;;5.80;;
20008;SDS011;10165;42.662;23.260;2023-08-06T06:54:13;7.20;;;5.90;;
20008;SDS011;10165;42.662;23.260;2023-08-06T06:56:40;8.77;;;5.30;;
20008;SDS011;10165;42.662;23.260;2023-08-06T06:59:06;7.63;;;5.30;;
20008;SDS011;10165;42.662;23.260;2023-08-06T07:01:33;5.27;;;4.77;;
20008;SDS011;10165;42.662;23.260;2023-08-06T07:04:00;5.17;;;4.67;;
20008;SDS011;10165;42.662;23.260;2023-08-06T07:06:31;5.50;;;4.80;;
20008;SDS011;10165;42.662;23.260;2023-08-06T07:08:58;5.93;;;5.00;;
20008;SDS011;10165;42.662;23.260;2023-08-06T07:11:24;5.77;;;4.47;;
20008;SDS011;10165;42.662;23.260;2023-08-06T07:13:56;6.63;;;4.27;;
20008;SDS011;10165;42.662;23.260;2023-08-06T07:16:24;5.13;;;3.13;;
20008;SDS011;10165;42.662;23.260;2023-08-06T07:18:54;4.77;;;3.13;;
20008;SDS011;10165;42.662;23.260;2023-08-06T07:21:21;4.17;;;3.00;;
20008;SDS011;10165;42.662;23.260;2023-08-06T07:23:48;4.30;;;2.87;;
20008;SDS011;10165;42.662;23.260;2023-08-06T07:26:18;4.13;;;3.10;;
20008;SDS011;10165;42.662;23.260;2023-08-06T07:28:44;4.27;;;3.00;;
20008;SDS011;10165;42.662;23.260;2023-08-06T07:31:11;4.83;;;2.83;;
20008;SDS011;10165;42.662;23.260;2023-08-06T07:33:38;5.27;;;2.80;;
20008;SDS011;10165;42.662;23.260;2023-08-06T07:36:12;3.90;;;2.93;;
20008;SDS011;10165;42.662;23.260;2023-08-06T07:38:40;6.40;;;2.87;;
20008;SDS011;10165;42.662;23.260;2023-08-06T07:41:08;4.93;;;3.07;;
20008;SDS011;10165;42.662;23.260;2023-08-06T07:43:35;3.63;;;3.17;;
20008;SDS011;10165;42.662;23.260;2023-08-06T07:46:02;4.03;;;3.20;;
20008;SDS011;10165;42.662;23.260;2023-08-06T07:48:29;4.97;;;3.20;;
20008;SDS011;10165;42.662;23.260;2023-08-06T07:50:56;3.03;;;2.80;;
20008;SDS011;10165;42.662;23.260;2023-08-06T07:53:24;3.70;;;2.80;;
20008;SDS011;10165;42.662;23.260;2023-08-06T07:55:55;5.03;;;3.33;;
20008;SDS011;10165;42.662;23.260;2023-08-06T07:58:23;3.47;;;2.90;;
20008;SDS011;10165;42.662;23.260;2023-08-06T08:00:51;3.27;;;2.80;;
20008;SDS011;10165;42.662;23.260;2023-08-06T08:03:18;4.23;;;3.07;;
20008;SDS011;10165;42.662;23.260;2023-08-06T08:05:46;4.23;;;2.70;;
20008;SDS011;10165;42.662;23.260;2023-08-06T08:08:13;2.97;;;2.70;;
20008;SDS011;10165;42.662;23.260;2023-08-06T08:10:40;6.10;;;3.20;;
20008;SDS011;10165;42.662;23.260;2023-08-06T08:13:07;7.17;;;3.60;;
20008;SDS011;10165;42.662;23.260;2023-08-06T08:15:34;3.83;;;3.40;;
20008;SDS011;10165;42.662;23.260;2023-08-06T08:18:01;3.93;;;3.50;;
20008;SDS011;10165;42.662;23.260;2023-08-06T08:20:28;3.57;;;3.27;;
20008;SDS011;10165;42.662;23.260;2023-08-06T08:23:01;3.53;;;3.23;;
20008;SDS011;10165;42.662;23.260;2023-08-06T08:25:28;3.83;;;3.07;;
20008;SDS011;10165;42.662;23.260;2023-08-06T08:27:57;4.30;;;3.43;;
20008;SDS011;10165;42.662;23.260;2023-08-06T08:30:24;3.43;;;3.13;;
20008;SDS011;10165;42.662;23.260;2023-08-06T08:32:52;4.03;;;3.10;;
20008;SDS011;10165;42.662;23.260;2023-08-06T08:35:18;3.40;;;3.10;;
20008;SDS011;10165;42.662;23.260;2023-08-06T08:37:45;5.03;;;3.20;;
20008;SDS011;10165;42.662;23.260;2023-08-06T08:40:13;4.33;;;2.53;;
20008;SDS011;10165;42.662;23.260;2023-08-06T08:42:41;4.00;;;3.60;;
20008;SDS011;10165;42.662;23.260;2023-08-06T08:45:12;3.63;;;3.13;;
20008;SDS011;10165;42.662;23.260;2023-08-06T08:47:40;3.27;;;2.87;;
20008;SDS011;10165;42.662;23.260;2023-08-06T08:50:09;4.73;;;2.80;;
20008;SDS011;10165;42.662;23.260;2023-08-06T08:52:41;4.37;;;3.57;;
20008;SDS011;10165;42.662;23.260;2023-08-06T08:55:12;5.50;;;3.47;;
20008;SDS011;10165;42.662;23.260;2023-08-06T08:57:41;3.43;;;2.93;;
20008;SDS011;10165;42.662;23.260;2023-08-06T09:00:08;3.43;;;3.13;;
20008;SDS011;10165;42.662;23.260;2023-08-06T09:02:35;6.77;;;3.33;;
20008;SDS011;10165;42.662;23.260;2023-08-06T09:05:05;3.17;;;2.87;;
20008;SDS011;10165;42.662;23.260;2023-08-06T09:07:45;3.70;;;2.70;;
20008;SDS011;10165;42.662;23.260;2023-08-06T09:10:16;3.03;;;2.73;;
20008;SDS011;10165;42.662;23.260;2023-08-06T09:12:44;2.83;;;2.63;;
20008;SDS011;10165;42.662;23.260;2023-08-06T09:15:11;3.37;;;3.03;;
20008;SDS011;10165;42.662;23.260;2023-08-06T09:17:39;3.53;;;3.23;;
20008;SDS011;10165;42.662;23.260;2023-08-06T09:20:12;3.20;;;2.90;;
20008;SDS011;10165;42.662;23.260;2023-08-06T09:22:41;5.50;;;3.03;;
20008;SDS011;10165;42.662;23.260;2023-08-06T09:25:08;5.57;;;2.60;;
20008;SDS011;10165;42.662;23.260;2023-08-06T09:27:39;3.23;;;2.80;;
20008;SDS011;10165;42.662;23.260;2023-08-06T09:30:06;7.17;;;3.10;;
20008;SDS011;10165;42.662;23.260;2023-08-06T09:32:47;2.77;;;2.47;;
20008;SDS011;10165;42.662;23.260;2023-08-06T09:35:15;3.13;;;2.60;;
20008;SDS011;10165;42.662;23.260;2023-08-06T09:37:43;3.00;;;2.80;;
20008;SDS011;10165;42.662;23.260;2023-08-06T09:40:26;3.57;;;2.80;;
20008;SDS011;10165;42.662;23.260;2023-08-06T09:42:54;13.57;;;2.90;;
20008;SDS011;10165;42.662;23.260;2023-08-06T09:45:22;2.80;;;2.60;;
20008;SDS011;10165;42.662;23.260;2023-08-06T09:47:50;6.10;;;3.10;;
20008;SDS011;10165;42.662;23.260;2023-08-06T09:50:17;4.00;;;3.53;;
20008;SDS011;10165;42.662;23.260;2023-08-06T09:52:46;3.67;;;2.50;;
20008;SDS011;10165;42.662;23.260;2023-08-06T09:55:14;2.30;;;2.10;;
20008;SDS011;10165;42.662;23.260;2023-08-06T09:57:42;2.80;;;2.60;;
20008;SDS011;10165;42.662;23.260;2023-08-06T10:00:10;3.33;;;2.50;;
20008;SDS011;10165;42.662;23.260;2023-08-06T10:02:37;3.60;;;2.33;;
20008;SDS011;10165;42.662;23.260;2023-08-06T10:05:06;3.50;;;2.50;;
20008;SDS011;10165;42.662;23.260;2023-08-06T10:07:34;2.40;;;2.20;;
20008;SDS011;10165;42.662;23.260;2023-08-06T10:10:02;5.10;;;2.70;;
20008;SDS011;10165;42.662;23.260;2023-08-06T10:12:29;4.47;;;3.00;;
20008;SDS011;10165;42.662;23.260;2023-08-06T10:15:07;4.97;;;2.73;;
20008;SDS011;10165;42.662;23.260;2023-08-06T10:17:37;3.33;;;2.57;;
20008;SDS011;10165;42.662;23.260;2023-08-06T10:20:16;3.00;;;2.17;;
20008;SDS011;10165;42.662;23.260;2023-08-06T10:22:45;2.23;;;2.03;;
20008;SDS011;10165;42.662;23.260;2023-08-06T10:25:13;3.60;;;2.23;;
20008;SDS011;10165;42.662;23.260;2023-08-06T10:33:02;4.80;;;2.80;;
20008;SDS011;10165;42.662;23.260;2023-08-06T10:35:51;3.13;;;2.73;;
20008;SDS011;10165;42.662;23.260;2023-08-06T10:38:20;4.57;;;2.93;;
20008;SDS011;10165;42.662;23.260;2023-08-06T10:43:28;3.90;;;3.00;;
20008;SDS011;10165;42.662;23.260;2023-08-06T10:46:00;5.03;;;3.00;;
20008;SDS011;10165;42.662;23.260;2023-08-06T10:48:29;3.03;;;2.60;;
20008;SDS011;10165;42.662;23.260;2023-08-06T10:51:07;3.40;;;2.80;;
20008;SDS011;10165;42.662;23.260;2023-08-06T10:53:35;2.90;;;2.00;;
20008;SDS011;10165;42.662;23.260;2023-08-06T10:56:02;2.27;;;2.00;;
20008;SDS011;10165;42.662;23.260;2023-08-06T10:58:42;3.50;;;2.40;;
20008;SDS011;10165;42.662;23.260;2023-08-06T11:01:10;5.03;;;2.90;;
20008;SDS011;10165;42.662;23.260;2023-08-06T11:03:37;3.47;;;3.03;;
20008;SDS011;10165;42.662;23.260;2023-08-06T11:06:08;3.47;;;2.50;;
20008;SDS011;10165;42.662;23.260;2023-08-06T11:08:36;6.37;;;2.57;;
20008;SDS011;10165;42.662;23.260;2023-08-06T11:11:10;4.17;;;2.27;;
20008;SDS011;10165;42.662;23.260;2023-08-06T11:13:42;3.83;;;2.20;;
20008;SDS011;10165;42.662;23.260;2023-08-06T11:16:13;2.43;;;2.23;;
20008;SDS011;10165;42.662;23.260;2023-08-06T11:18:45;5.43;;;2.60;;
20008;SDS011;10165;42.662;23.260;2023-08-06T11:21:12;6.67;;;3.23;;
20008;SDS011;10165;42.662;23.260;2023-08-06T11:23:40;4.73;;;2.80;;
20008;SDS011;10165;42.662;23.260;2023-08-06T11:26:07;4.43;;;2.80;;
20008;SDS011;10165;42.662;23.260;2023-08-06T11:28:34;5.60;;;2.90;;
20008;SDS011;10165;42.662;23.260;2023-08-06T11:31:01;6.17;;;3.20;;
20008;SDS011;10165;42.662;23.260;2023-08-06T11:33:30;4.30;;;3.33;;
20008;SDS011;10165;42.662;23.260;2023-08-06T11:35:58;8.80;;;3.47;;
20008;SDS011;10165;42.662;23.260;2023-08-06T11:38:27;7.23;;;3.63;;
20008;SDS011;10165;42.662;23.260;2023-08-06T11:40:55;8.63;;;3.30;;
20008;SDS011;10165;42.662;23.260;2023-08-06T11:43:22;6.00;;;3.17;;
20008;SDS011;10165;42.662;23.260;2023-08-06T11:45:49;3.73;;;3.07;;
20008;SDS011;10165;42.662;23.260;2023-08-06T11:48:21;3.10;;;2.80;;
20008;SDS011;10165;42.662;23.260;2023-08-06T11:50:48;3.27;;;2.97;;
20008;SDS011;10165;42.662;23.260;2023-08-06T11:53:14;3.83;;;3.37;;
20008;SDS011;10165;42.662;23.260;2023-08-06T11:55:43;3.50;;;3.17;;
20008;SDS011;10165;42.662;23.260;2023-08-06T11:58:10;5.53;;;3.20;;
20008;SDS011;10165;42.662;23.260;2023-08-06T12:00:38;3.80;;;2.70;;
20008;SDS011;10165;42.662;23.260;2023-08-06T12:03:05;3.20;;;2.90;;
20008;SDS011;10165;42.662;23.260;2023-08-06T12:05:32;4.07;;;3.03;;
20008;SDS011;10165;42.662;23.260;2023-08-06T12:08:00;3.43;;;3.00;;
20008;SDS011;10165;42.662;23.260;2023-08-06T12:10:29;4.30;;;3.23;;
20008;SDS011;10165;42.662;23.260;2023-08-06T12:12:56;5.83;;;3.30;;
20008;SDS011;10165;42.662;23.260;2023-08-06T12:15:23;3.90;;;3.43;;
20008;SDS011;10165;42.662;23.260;2023-08-06T12:17:50;3.90;;;3.50;;
20008;SDS011;10165;42.662;23.260;2023-08-06T12:20:17;5.63;;;3.53;;
20008;SDS011;10165;42.662;23.260;2023-08-06T12:22:44;4.63;;;3.57;;
20008;SDS011;10165;42.662;23.260;2023-08-06T12:25:12;4.73;;;3.40;;
20008;SDS011;10165;42.662;23.260;2023-08-06T12:27:43;5.03;;;4.03;;
20008;SDS011;10165;42.662;23.260;2023-08-06T12:30:11;6.90;;;3.70;;
20008;SDS011;10165;42.662;23.260;2023-08-06T12:32:39;4.07;;;3.53;;
20008;SDS011;10165;42.662;23.260;2023-08-06T12:35:06;4.47;;;4.07;;
20008;SDS011;10165;42.662;23.260;2023-08-06T12:37:34;5.40;;;4.17;;
20008;SDS011;10165;42.662;23.260;2023-08-06T12:40:01;5.53;;;4.50;;
20008;SDS011;10165;42.662;23.260;2023-08-06T12:42:50;4.73;;;4.20;;
20008;SDS011;10165;42.662;23.260;2023-08-06T12:45:17;8.43;;;4.07;;
20008;SDS011;10165;42.662;23.260;2023-08-06T12:47:47;5.63;;;4.40;;
20008;SDS011;10165;42.662;23.260;2023-08-06T12:50:16;7.17;;;4.30;;
20008;SDS011;10165;42.662;23.260;2023-08-06T12:52:44;9.13;;;4.70;;
20008;SDS011;10165;42.662;23.260;2023-08-06T12:55:11;6.90;;;4.00;;
20008;SDS011;10165;42.662;23.260;2023-08-06T12:57:37;6.07;;;4.37;;
20008;SDS011;10165;42.662;23.260;2023-08-06T13:00:22;4.90;;;4.40;;
20008;SDS011;10165;42.662;23.260;2023-08-06T13:02:49;6.17;;;3.60;;
20008;SDS011;10165;42.662;23.260;2023-08-06T13:05:16;4.33;;;3.37;;
20008;SDS011;10165;42.662;23.260;2023-08-06T13:07:43;4.40;;;3.90;;
20008;SDS011;10165;42.662;23.260;2023-08-06T13:10:10;4.13;;;3.23;;
20008;SDS011;10165;42.662;23.260;2023-08-06T13:12:36;4.83;;;3.23;;
20008;SDS011;10165;42.662;23.260;2023-08-06T13:15:03;5.37;;;3.43;;
20008;SDS011;10165;42.662;23.260;2023-08-06T13:17:30;3.77;;;3.20;;
20008;SDS011;10165;42.662;23.260;2023-08-06T13:19:57;3.83;;;3.43;;
20008;SDS011;10165;42.662;23.260;2023-08-06T13:22:24;4.33;;;3.93;;
20008;SDS011;10165;42.662;23.260;2023-08-06T13:24:50;4.83;;;4.07;;
20008;SDS011;10165;42.662;23.260;2023-08-06T13:27:17;3.90;;;3.50;;
20008;SDS011;10165;42.662;23.260;2023-08-06T13:29:44;6.13;;;4.10;;
20008;SDS011;10165;42.662;23.260;2023-08-06T13:32:11;4.40;;;3.70;;
20008;SDS011;10165;42.662;23.260;2023-08-06T13:34:37;7.00;;;3.73;;
20008;SDS011;10165;42.662;23.260;2023-08-06T13:37:04;4.57;;;3.60;;
20008;SDS011;10165;42.662;23.260;2023-08-06T13:39:31;4.23;;;3.60;;
20008;SDS011;10165;42.662;23.260;2023-08-06T13:41:58;4.60;;;4.07;;
20008;SDS011;10165;42.662;23.260;2023-08-06T13:44:24;4.23;;;3.83;;
20008;SDS011;10165;42.662;23.260;2023-08-06T13:46:51;4.63;;;3.17;;
20008;SDS011;10165;42.662;23.260;2023-08-06T13:49:18;4.60;;;3.47;;
20008;SDS011;10165;42.662;23.260;2023-08-06T13:51:45;4.40;;;3.77;;
20008;SDS011;10165;42.662;23.260;2023-08-06T13:54:12;5.60;;;3.60;;
20008;SDS011;10165;42.662;23.260;2023-08-06T13:56:38;4.93;;;3.40;;
20008;SDS011;10165;42.662;23.260;2023-08-06T13:59:05;6.97;;;4.50;;
20008;SDS011;10165;42.662;23.260;2023-08-06T14:01:32;3.60;;;3.23;;
20008;SDS011;10165;42.662;23.260;2023-08-06T14:04:16;5.40;;;4.30;;
20008;SDS011;10165;42.662;23.260;2023-08-06T14:06:42;5.43;;;3.73;;
20008;SDS011;10165;42.662;23.260;2023-08-06T14:09:09;3.70;;;3.40;;
20008;SDS011;10165;42.662;23.260;2023-08-06T14:11:38;4.03;;;3.63;;
20008;SDS011;10165;42.662;23.260;2023-08-06T14:14:05;3.97;;;3.57;;
20008;SDS011;10165;42.662;23.260;2023-08-06T14:16:32;4.73;;;3.77;;
20008;SDS011;10165;42.662;23.260;2023-08-06T14:18:58;3.97;;;3.33;;
20008;SDS011;10165;42.662;23.260;2023-08-06T14:21:25;3.00;;;2.70;;
20008;SDS011;10165;42.662;23.260;2023-08-06T14:23:52;4.53;;;2.90;;
20008;SDS011;10165;42.662;23.260;2023-08-06T14:26:19;2.67;;;2.47;;
20008;SDS011;10165;42.662;23.260;2023-08-06T14:28:46;7.40;;;3.73;;
20008;SDS011;10165;42.662;23.260;2023-08-06T14:31:13;3.97;;;2.90;;
20008;SDS011;10165;42.662;23.260;2023-08-06T14:33:39;3.97;;;2.80;;
20008;SDS011;10165;42.662;23.260;2023-08-06T14:36:06;3.53;;;3.20;;
20008;SDS011;10165;42.662;23.260;2023-08-06T14:38:33;4.50;;;2.90;;
20008;SDS011;10165;42.662;23.260;2023-08-06T14:41:11;3.33;;;2.10;;
20008;SDS011;10165;42.662;23.260;2023-08-06T14:43:38;2.37;;;2.07;;
20008;SDS011;10165;42.662;23.260;2023-08-06T14:46:05;2.57;;;2.10;;
20008;SDS011;10165;42.662;23.260;2023-08-06T14:48:32;3.73;;;2.00;;
20008;SDS011;10165;42.662;23.260;2023-08-06T14:50:59;2.17;;;1.97;;
20008;SDS011;10165;42.662;23.260;2023-08-06T14:53:26;3.10;;;2.13;;
20008;SDS011;10165;42.662;23.260;2023-08-06T14:55:53;2.60;;;2.10;;